Flight Track Log - Related Links

Times and Time Zones

All times are in EDT time to prevent confusion due to time zone crossing. See the N232CF flight status page for this flight to view local times or setup timezone preferences in your user account.

Time Position Orientation Groundspeed Altitude Reporting Facility
EDT Latitude Longitude Course Direction KTS MPH feet Rate Location/Type
Wed 05:31:12 PM 37.9892 -87.4983 120° Southeast 240 276 4,600  Level Indianapolis Center
Wed 05:32:14 PM 37.9592 -87.4033 112° Southeast 290 334 6,600 2,177 Climbing Indianapolis Center
Wed 05:33:16 PM 37.9175 -87.3039 118° Southeast 315 362 9,100 2,613 Climbing Indianapolis Center
Wed 05:34:18 PM 37.8658 -87.1739 117° Southeast 343 395 12,000 1,887 Climbing Indianapolis Center
Wed 05:35:20 PM 37.8178 -87.0556 117° Southeast 370 426 13,000 484 Climbing Indianapolis Center
Wed 05:36:00 PM 37.8067 -86.9675 120° Southeast  Level Estimated
Wed 05:36:22 PM 37.7636 -86.9158 116° Southeast 435 501 13,000  Level Indianapolis Center
Wed 05:37:25 PM 37.7058 -86.7758 118° Southeast 447 514 13,000  Level Indianapolis Center
Wed 05:38:27 PM 37.6478 -86.6342 117° Southeast 453 521 13,000  Level Indianapolis Center
Wed 05:39:29 PM 37.5856 -86.4828 117° Southeast 445 512 13,000 48 Level Indianapolis Center
Wed 05:40:31 PM 37.5286 -86.3444 117° Southeast 441 507 13,100 48 Climbing Indianapolis Center
Wed 05:41:33 PM 37.4719 -86.2047 117° Southeast 443 510 13,100  Level Indianapolis Center
Wed 05:42:35 PM 37.4142 -86.0647 117° Southeast 444 511 13,100 -48 Level Indianapolis Center
Wed 05:43:37 PM 37.3625 -85.9164 114° Southeast 456 525 13,000 -871 Descending Indianapolis Center
Wed 05:44:39 PM 37.3217 -85.7592 108° East 447 514 11,300 -1,355 Descending Indianapolis Center
Wed 05:45:41 PM 37.2739 -85.6197 113° Southeast 392 451 10,200 -1,403 Descending Indianapolis Center
Wed 05:46:43 PM 37.2361 -85.5128 114° Southeast 333 383 8,400 -1,694 Descending Indianapolis Center
Wed 05:47:45 PM 37.2006 -85.4103 114° Southeast 321 369 6,700 -1,694 Descending Indianapolis Center
Wed 05:48:47 PM 37.1667 -85.3108 113° Southeast 313 360 4,900 -1,597 Descending Indianapolis Center
Wed 05:49:49 PM 37.1333 -85.2172 114° Southeast 303 349 3,400 -1,452 Descending Indianapolis Center

Login

Don't have an account? Register now (free) for customized features, flight alerts, and more!